createdAt,value
2018-07-12T00:00:26.368Z,101913.73
2018-07-12T00:02:54.436Z,101917.31
2018-07-12T00:05:22.449Z,101909.20
2018-07-12T00:07:50.719Z,101909.20
2018-07-12T00:10:18.775Z,101909.69
2018-07-12T00:12:46.791Z,101901.48
2018-07-12T00:15:14.807Z,101914.05
2018-07-12T00:17:42.827Z,101908.23
2018-07-12T00:20:10.843Z,101909.27
2018-07-12T00:22:38.875Z,101906.88
2018-07-12T00:25:06.895Z,101910.06
2018-07-12T00:27:34.961Z,101907.37
2018-07-12T00:30:03.001Z,101914.12
2018-07-12T00:32:31.015Z,101914.61
2018-07-12T00:34:59.075Z,101918.66
2018-07-12T00:37:27.095Z,101916.44
2018-07-12T00:40:00.603Z,101912.77
2018-07-12T00:42:28.924Z,101906.08
2018-07-12T00:44:57.620Z,101913.73
2018-07-12T00:47:25.756Z,101910.94
2018-07-12T00:49:53.767Z,101907.92
2018-07-12T00:52:21.797Z,101907.92
2018-07-12T00:54:49.816Z,101909.20
2018-07-12T00:57:17.840Z,101908.23
2018-07-12T00:59:45.853Z,101904.73
2018-07-12T01:02:13.856Z,101903.38
2018-07-12T01:04:41.882Z,101904.66
2018-07-12T01:07:09.896Z,101905.15
2018-07-12T01:09:37.902Z,101904.17
2018-07-12T01:12:05.926Z,101904.73
2018-07-12T01:14:33.939Z,101905.22
2018-07-12T01:17:01.967Z,101910.55
2018-07-12T01:19:29.989Z,101913.25
2018-07-12T01:21:58.007Z,101910.14
2018-07-12T01:24:26.013Z,101906.08
2018-07-12T01:26:54.035Z,101898.95
2018-07-12T01:29:22.071Z,101899.44
2018-07-12T01:31:50.066Z,101902.14
2018-07-12T01:34:18.089Z,101900.30
2018-07-12T01:36:46.101Z,101900.78
2018-07-12T01:39:14.120Z,101904.42
2018-07-12T01:41:42.157Z,101905.22
2018-07-12T01:44:10.164Z,101900.30
2018-07-12T01:46:38.180Z,101894.41
2018-07-12T01:49:06.198Z,101893.55
2018-07-12T01:51:34.209Z,101892.68
2018-07-12T01:54:02.249Z,101898.57
2018-07-12T01:56:30.264Z,101900.97
2018-07-12T01:58:58.288Z,101899.13
2018-07-12T02:01:26.300Z,101892.75
2018-07-12T02:03:54.309Z,101890.92
2018-07-12T02:06:22.343Z,101886.86
2018-07-12T02:08:50.348Z,101898.64
2018-07-12T02:11:18.376Z,101895.94
2018-07-12T02:13:46.382Z,101900.06
2018-07-12T02:16:14.393Z,101897.84
2018-07-12T02:18:42.405Z,101897.30
2018-07-12T02:21:10.424Z,101892.86
2018-07-12T02:23:44.013Z,101895.08
2018-07-12T02:26:17.558Z,101899.61
2018-07-12T02:28:45.795Z,101901.90
2018-07-12T02:31:13.809Z,101896.01
2018-07-12T02:33:41.827Z,101896.01
2018-07-12T02:36:09.861Z,101900.06
2018-07-12T02:38:37.867Z,101898.72
2018-07-12T02:41:05.901Z,101896.57
2018-07-12T02:43:33.916Z,101891.95
2018-07-12T02:46:01.929Z,101891.58
2018-07-12T02:48:29.979Z,101888.46
2018-07-12T02:50:58.203Z,101893.41
2018-07-12T02:53:26.232Z,101894.77
2018-07-12T02:55:54.238Z,101891.66
2018-07-12T02:58:22.270Z,101890.78
2018-07-12T03:00:50.289Z,101887.22
2018-07-12T03:03:18.303Z,101892.20
2018-07-12T03:05:46.319Z,101897.61
2018-07-12T03:08:14.327Z,101892.31
2018-07-12T03:10:42.375Z,101889.61
2018-07-12T03:13:10.385Z,101894.91
2018-07-12T03:15:38.396Z,101891.34
2018-07-12T03:18:06.382Z,101891.83
2018-07-12T03:20:34.408Z,101897.61
2018-07-12T03:23:02.416Z,101905.27
2018-07-12T03:25:30.436Z,101900.41
2018-07-12T03:27:58.463Z,101903.61
2018-07-12T03:30:26.474Z,101906.76
2018-07-12T03:32:54.483Z,101899.62
2018-07-12T03:35:22.495Z,101905.58
2018-07-12T03:37:50.623Z,101906.38
2018-07-12T03:40:18.694Z,101904.16
2018-07-12T03:42:46.860Z,101900.17
2018-07-12T03:45:14.867Z,101906.30
2018-07-12T03:47:42.876Z,101905.89
2018-07-12T03:50:10.914Z,101905.51
2018-07-12T03:52:38.950Z,101902.39
2018-07-12T03:55:06.943Z,101904.23
2018-07-12T03:57:34.967Z,101909.15
2018-07-12T04:00:02.983Z,101906.93
2018-07-12T04:02:31.019Z,101910.50
2018-07-12T04:04:59.039Z,101912.27
2018-07-12T04:07:27.073Z,101909.88
2018-07-12T04:09:55.075Z,101907.72
2018-07-12T04:12:23.087Z,101911.78
2018-07-12T04:14:51.304Z,101919.40
2018-07-12T04:17:35.807Z,101915.34
2018-07-12T04:20:05.055Z,101912.27
2018-07-12T04:22:34.243Z,101913.12
2018-07-12T04:25:02.279Z,101913.12
2018-07-12T04:27:30.549Z,101913.20
2018-07-12T04:29:59.680Z,101910.05
2018-07-12T04:32:27.898Z,101910.50
2018-07-12T04:34:55.907Z,101909.15
2018-07-12T04:37:23.940Z,101910.81
2018-07-12T04:39:51.951Z,101910.81
2018-07-12T04:42:19.952Z,101920.67
2018-07-12T04:44:47.971Z,101917.66
2018-07-12T04:47:15.992Z,101914.86
2018-07-12T04:49:44.045Z,101914.86
2018-07-12T04:52:12.056Z,101913.99
2018-07-12T04:54:40.089Z,101911.22
2018-07-12T04:57:08.105Z,101913.44
2018-07-12T04:59:36.111Z,101913.61
2018-07-12T05:02:04.149Z,101908.28
2018-07-12T05:04:32.160Z,101907.24
2018-07-12T05:07:00.172Z,101902.39
2018-07-12T05:09:28.179Z,101907.72
2018-07-12T05:11:56.247Z,101908.52
2018-07-12T05:14:24.285Z,101908.52
2018-07-12T05:16:52.300Z,101906.20
2018-07-12T05:19:20.307Z,101911.30
2018-07-12T05:21:48.360Z,101917.11
2018-07-12T05:24:16.614Z,101914.79
2018-07-12T05:26:44.629Z,101905.81
2018-07-12T05:29:12.658Z,101918.36
2018-07-12T05:31:40.695Z,101912.02
2018-07-12T05:34:08.703Z,101913.68
2018-07-12T05:36:52.497Z,101911.43
2018-07-12T05:39:21.841Z,101911.53
2018-07-12T05:41:51.655Z,101924.07
2018-07-12T05:44:20.733Z,101921.37
2018-07-12T05:46:50.383Z,101931.23
2018-07-12T05:49:19.551Z,101924.17
2018-07-12T05:51:48.704Z,101927.26
2018-07-12T05:54:18.920Z,101926.88
2018-07-12T05:56:48.301Z,101932.17
2018-07-12T05:59:18.134Z,101932.17
2018-07-12T06:02:03.820Z,101933.52
2018-07-12T06:04:32.959Z,101932.17
2018-07-12T06:07:02.143Z,101934.39
2018-07-12T06:09:31.224Z,101939.80
2018-07-12T06:12:00.334Z,101936.16
2018-07-12T06:14:29.396Z,101937.51
2018-07-12T06:16:58.522Z,101936.78
2018-07-12T06:19:27.808Z,101938.93
2018-07-12T06:21:56.940Z,101945.69
2018-07-12T06:24:26.016Z,101953.09
2018-07-12T06:26:55.100Z,101949.98
2018-07-12T06:29:24.209Z,101949.05
2018-07-12T06:31:53.289Z,101958.02
2018-07-12T06:34:22.368Z,101957.63
2018-07-12T06:36:51.483Z,101962.24
2018-07-12T06:39:20.597Z,101962.14
2018-07-12T06:41:49.669Z,101974.88
2018-07-12T06:44:18.746Z,101972.56
2018-07-12T06:46:47.895Z,101977.48
2018-07-12T06:49:16.988Z,101977.89
2018-07-12T06:51:46.063Z,101977.80
2018-07-12T06:54:15.168Z,101978.11
2018-07-12T06:56:44.244Z,101978.11
2018-07-12T06:59:13.338Z,101981.22
2018-07-12T07:01:42.464Z,101982.41
2018-07-12T07:04:11.558Z,101993.45
2018-07-12T07:06:40.645Z,102001.07
2018-07-12T07:09:10.975Z,101997.41
2018-07-12T07:11:40.727Z,102000.52
2018-07-12T07:14:09.989Z,101992.86
2018-07-12T07:16:39.072Z,102005.50
2018-07-12T07:19:08.228Z,102001.87
2018-07-12T07:21:37.469Z,102008.21
2018-07-12T07:24:06.568Z,102006.30
2018-07-12T07:26:35.682Z,102010.28
2018-07-12T07:29:04.756Z,102009.25
2018-07-12T07:31:33.874Z,102009.63
2018-07-12T07:34:02.948Z,101998.82
2018-07-12T07:36:32.044Z,102016.07
2018-07-12T07:39:01.170Z,102012.47
2018-07-12T07:41:30.344Z,102009.27
2018-07-12T07:43:59.414Z,102012.96
2018-07-12T07:46:28.520Z,102006.56
2018-07-12T07:48:57.592Z,102020.63
2018-07-12T07:51:26.740Z,102025.66
2018-07-12T07:53:55.803Z,102024.20
2018-07-12T07:56:24.894Z,102023.87
2018-07-12T07:58:54.006Z,102031.25
2018-07-12T08:01:23.356Z,102027.05
2018-07-12T08:03:52.474Z,102022.02
2018-07-12T08:06:21.544Z,102032.59
2018-07-12T08:08:50.672Z,102021.39
2018-07-12T08:11:19.800Z,102020.84
2018-07-12T08:13:48.901Z,102022.88
2018-07-12T08:16:18.065Z,102030.41
2018-07-12T08:18:47.298Z,102027.41
2018-07-12T08:21:16.674Z,102031.02
2018-07-12T08:23:46.765Z,102031.56
2018-07-12T08:26:15.917Z,102018.34
2018-07-12T08:28:45.021Z,102022.36
2018-07-12T08:31:14.302Z,102021.98
2018-07-12T08:33:43.621Z,102032.66
2018-07-12T08:36:12.822Z,102029.47
2018-07-12T08:38:42.095Z,102030.45
2018-07-12T08:41:11.194Z,102030.45
2018-07-12T08:43:40.287Z,102041.73
2018-07-12T08:46:09.460Z,102043.48
2018-07-12T08:48:38.803Z,102032.36
2018-07-12T08:51:07.903Z,102034.95
2018-07-12T08:53:36.976Z,102033.45
2018-07-12T08:56:06.051Z,102031.08
2018-07-12T08:58:35.119Z,102029.13
2018-07-12T09:01:04.699Z,102026.69
2018-07-12T09:03:33.765Z,102026.39
2018-07-12T09:06:03.017Z,102031.69
2018-07-12T09:08:32.182Z,102033.61
2018-07-12T09:11:01.372Z,102035.95
2018-07-12T09:13:30.569Z,102032.94
2018-07-12T09:15:59.660Z,102032.04
2018-07-12T09:18:28.747Z,102030.88
2018-07-12T09:20:57.969Z,102030.01
2018-07-12T09:23:27.196Z,102033.47
2018-07-12T09:25:56.463Z,102038.02
2018-07-12T09:28:25.653Z,102035.39
2018-07-12T09:30:54.907Z,102032.38
2018-07-12T09:33:24.262Z,102035.95
2018-07-12T09:35:53.461Z,102024.44
2018-07-12T09:38:55.626Z,102034.55
2018-07-12T09:41:25.444Z,102033.31
2018-07-12T09:43:54.524Z,102027.98
2018-07-12T09:46:23.613Z,102028.47
2018-07-12T09:48:53.243Z,102032.60
2018-07-12T09:51:22.552Z,102029.14
2018-07-12T09:53:51.735Z,102031.36
2018-07-12T09:56:20.942Z,102027.56
2018-07-12T09:58:50.229Z,102024.13
2018-07-12T10:01:24.802Z,102042.78
2018-07-12T10:03:54.408Z,102046.84
2018-07-12T10:06:28.925Z,102032.89
2018-07-12T10:09:03.248Z,102048.83
2018-07-12T10:11:37.797Z,102048.90
2018-07-12T10:14:12.256Z,102042.12
2018-07-12T10:16:44.562Z,102051.41
2018-07-12T10:19:13.706Z,102045.58
2018-07-12T10:21:42.830Z,102065.57
2018-07-12T10:24:12.027Z,102053.31
2018-07-12T10:26:41.206Z,102052.53
2018-07-12T10:29:10.292Z,102063.45
2018-07-12T10:31:39.365Z,102056.69
2018-07-12T10:34:08.478Z,102056.39
2018-07-12T10:36:37.580Z,102050.48
2018-07-12T10:39:08.390Z,102050.18
2018-07-12T10:41:37.722Z,102047.55
2018-07-12T10:44:06.950Z,102057.09
2018-07-12T10:46:36.134Z,102050.81
2018-07-12T10:49:05.597Z,102049.88
2018-07-12T10:51:34.720Z,102047.50
2018-07-12T10:54:03.816Z,102053.46
2018-07-12T10:56:32.900Z,102052.22
2018-07-12T10:59:02.158Z,102042.19
2018-07-12T11:01:31.404Z,102058.80
2018-07-12T11:04:00.495Z,102043.13
2018-07-12T11:06:29.612Z,102052.04
2018-07-12T11:08:58.681Z,102051.48
2018-07-12T11:11:27.749Z,102043.44
2018-07-12T11:13:56.902Z,102051.97
2018-07-12T11:16:26.078Z,102047.80
2018-07-12T11:18:55.230Z,102046.38
2018-07-12T11:21:24.372Z,102045.81
2018-07-12T11:23:53.508Z,102047.63
2018-07-12T11:26:22.718Z,102047.97
2018-07-12T11:28:51.864Z,102049.77
2018-07-12T11:31:20.996Z,102046.86
2018-07-12T11:33:51.044Z,102055.36
2018-07-12T11:36:20.295Z,102034.89
2018-07-12T11:38:49.584Z,102042.63
2018-07-12T11:41:18.680Z,102049.95
2018-07-12T11:43:47.739Z,102035.06
2018-07-12T11:46:16.941Z,102038.95
2018-07-12T11:48:46.324Z,102034.15
2018-07-12T11:51:15.408Z,102023.63
2018-07-12T11:53:44.500Z,102026.95
2018-07-12T11:56:13.596Z,102029.87
2018-07-12T11:58:42.684Z,102032.71
2018-07-12T12:01:11.861Z,102022.06
2018-07-12T12:03:40.967Z,102025.26
2018-07-12T12:06:10.214Z,102014.02
2018-07-12T12:08:39.456Z,102028.45
2018-07-12T12:11:08.761Z,102025.08
2018-07-12T12:13:37.844Z,102019.92
2018-07-12T12:16:07.052Z,102020.94
2018-07-12T12:18:36.124Z,102020.79
2018-07-12T12:21:05.259Z,102023.01
2018-07-12T12:23:34.535Z,102015.38
2018-07-12T12:26:03.640Z,102024.66
2018-07-12T12:28:32.736Z,102022.56
2018-07-12T12:31:01.815Z,102023.84
2018-07-12T12:33:30.953Z,102020.34
2018-07-12T12:36:00.198Z,102025.38
2018-07-12T12:38:29.307Z,102033.20
2018-07-12T12:40:58.390Z,102021.35
2018-07-12T12:43:27.501Z,102024.70
2018-07-12T12:45:56.583Z,102023.34
2018-07-12T12:48:25.710Z,102030.41
2018-07-12T12:50:54.784Z,102025.19
2018-07-12T12:53:24.105Z,102025.52
2018-07-12T12:55:53.302Z,102023.19
2018-07-12T12:58:22.384Z,102029.39
2018-07-12T13:00:51.493Z,102027.41
2018-07-12T13:03:20.567Z,102021.20
2018-07-12T13:05:49.683Z,102030.11
2018-07-12T13:08:18.809Z,102019.13
2018-07-12T13:10:47.965Z,102017.89
2018-07-12T13:13:17.067Z,102023.86
2018-07-12T13:15:46.163Z,102025.95
2018-07-12T13:18:15.442Z,102035.61
2018-07-12T13:20:44.577Z,102027.19
2018-07-12T13:23:13.762Z,102022.27
2018-07-12T13:25:42.856Z,102024.38
2018-07-12T13:28:12.109Z,102034.00
2018-07-12T13:30:41.245Z,102038.67
2018-07-12T13:33:10.699Z,102029.04
2018-07-12T13:35:39.862Z,102043.06
2018-07-12T13:38:09.033Z,102041.50
2018-07-12T13:40:38.149Z,102035.30
2018-07-12T13:43:07.237Z,102037.22
2018-07-12T13:45:36.321Z,102032.75
2018-07-12T13:48:05.400Z,102030.40
2018-07-12T13:50:34.479Z,102028.56
2018-07-12T13:53:03.600Z,102032.13
2018-07-12T13:55:32.717Z,102043.55
2018-07-12T13:58:01.866Z,102037.16
2018-07-12T14:00:31.203Z,102025.55
2018-07-12T14:03:00.301Z,102033.17
2018-07-12T14:05:29.388Z,102032.00
2018-07-12T14:07:58.495Z,102028.81
2018-07-12T14:10:27.581Z,102035.98
2018-07-12T14:12:56.681Z,102027.77
2018-07-12T14:15:25.807Z,102030.89
2018-07-12T14:17:54.976Z,102026.42
2018-07-12T14:20:24.076Z,102025.17
2018-07-12T14:22:53.176Z,102033.36
2018-07-12T14:25:22.256Z,102031.93
2018-07-12T14:27:51.360Z,102032.11
2018-07-12T14:30:20.435Z,102023.41
2018-07-12T14:32:49.563Z,102023.81
2018-07-12T14:35:18.631Z,102016.01
2018-07-12T14:37:47.697Z,102023.25
2018-07-12T14:40:16.900Z,102019.09
2018-07-12T14:42:46.086Z,102019.02
2018-07-12T14:45:15.260Z,102017.97
2018-07-12T14:47:44.639Z,102017.97
2018-07-12T14:50:13.743Z,102021.31
2018-07-12T14:52:42.817Z,102021.98
2018-07-12T14:55:11.884Z,102011.64
2018-07-12T14:57:40.959Z,102027.56
2018-07-12T15:00:10.069Z,102022.34
2018-07-12T15:02:39.212Z,102017.97
2018-07-12T15:05:08.497Z,102020.88
2018-07-12T15:07:37.779Z,102023.37
2018-07-12T15:10:07.068Z,102024.62
2018-07-12T15:12:36.557Z,102014.92
2018-07-12T15:15:06.379Z,102018.98
2018-07-12T15:17:36.175Z,102011.36
2018-07-12T15:20:05.478Z,102016.94
2018-07-12T15:22:34.644Z,102009.50
2018-07-12T15:25:03.887Z,102009.50
2018-07-12T15:27:32.979Z,102012.20
2018-07-12T15:30:02.134Z,102004.54
2018-07-12T15:32:31.204Z,102010.74
2018-07-12T15:35:00.337Z,102017.02
2018-07-12T15:37:29.518Z,102015.11
2018-07-12T15:39:58.604Z,102014.73
2018-07-12T15:42:27.724Z,102008.34
2018-07-12T15:44:56.805Z,102021.66
2018-07-12T15:47:25.887Z,102022.30
2018-07-12T15:49:54.966Z,102019.52
2018-07-12T15:52:24.154Z,102019.69
2018-07-12T15:54:53.428Z,102009.44
2018-07-12T15:57:22.596Z,102008.59
2018-07-12T15:59:51.818Z,102010.05
2018-07-12T16:02:20.987Z,102015.05
2018-07-12T16:04:50.087Z,102015.05
2018-07-12T16:07:19.194Z,102017.19
2018-07-12T16:09:48.281Z,102023.47
2018-07-12T16:12:17.387Z,102015.11
2018-07-12T16:14:46.565Z,102014.98
2018-07-12T16:17:15.659Z,102022.77
2018-07-12T16:19:44.747Z,102015.03
2018-07-12T16:22:13.834Z,102005.88
2018-07-12T16:24:42.915Z,102013.42
2018-07-12T16:27:12.044Z,102002.53
2018-07-12T16:29:41.146Z,102013.91
2018-07-12T16:32:10.263Z,102013.50
2018-07-12T16:34:39.445Z,101998.31
2018-07-12T16:37:08.581Z,101996.52
2018-07-12T16:39:38.088Z,102006.84
2018-07-12T16:42:07.174Z,102007.71
2018-07-12T16:44:36.271Z,102001.44
2018-07-12T16:47:05.641Z,102014.48
2018-07-12T16:49:34.843Z,102005.31
2018-07-12T16:52:03.917Z,102012.30
2018-07-12T16:54:33.235Z,102022.56
2018-07-12T16:57:02.515Z,102009.80
2018-07-12T16:59:31.627Z,102013.03
2018-07-12T17:02:00.720Z,102007.55
2018-07-12T17:04:29.807Z,102020.67
2018-07-12T17:06:58.899Z,102015.81
2018-07-12T17:09:27.995Z,102021.08
2018-07-12T17:11:57.211Z,102008.72
2018-07-12T17:14:26.292Z,102017.14
2018-07-12T17:16:55.400Z,102022.63
2018-07-12T17:19:24.465Z,102021.69
2018-07-12T17:21:53.553Z,102029.24
2018-07-12T17:24:22.701Z,102032.02
2018-07-12T17:26:51.871Z,102023.34
2018-07-12T17:29:20.973Z,102023.16
2018-07-12T17:31:50.079Z,102027.18
2018-07-12T17:34:20.201Z,102035.91
2018-07-12T17:36:49.295Z,102036.39
2018-07-12T17:39:18.389Z,102030.67
2018-07-12T17:41:47.479Z,102040.83
2018-07-12T17:44:16.575Z,102037.74
2018-07-12T17:46:45.691Z,102038.45
2018-07-12T17:49:14.855Z,102037.59
2018-07-12T17:51:43.956Z,102034.70
2018-07-12T17:54:13.064Z,102026.99
2018-07-12T17:56:42.141Z,102028.34
2018-07-12T17:59:11.264Z,102034.55
2018-07-12T18:01:40.343Z,102040.91
2018-07-12T18:04:09.439Z,102047.29
2018-07-12T18:06:38.540Z,102040.75
2018-07-12T18:09:08.038Z,102040.37
2018-07-12T18:11:37.146Z,102045.86
2018-07-12T18:14:06.595Z,102041.80
2018-07-12T18:16:35.736Z,102045.86
2018-07-12T18:19:04.828Z,102038.61
2018-07-12T18:21:33.924Z,102038.86
2018-07-12T18:32:58.744Z,102050.00
2018-07-12T18:42:30.286Z,102052.27
2018-07-12T18:47:40.084Z,102050.14
2018-07-12T18:50:09.282Z,102046.58
2018-07-12T19:25:18.312Z,102060.87
2018-07-12T19:30:44.470Z,102060.08
2018-07-12T19:33:13.565Z,102064.13
2018-07-12T19:35:42.732Z,102068.56
2018-07-12T19:38:11.823Z,102067.39
2018-07-12T19:40:40.938Z,102078.59
2018-07-12T19:43:10.054Z,102071.94
2018-07-12T19:45:39.419Z,102076.30
2018-07-12T19:48:08.530Z,102081.30
2018-07-12T19:50:37.612Z,102084.00
2018-07-12T19:53:06.704Z,102082.64
2018-07-12T19:55:35.824Z,102079.56
2018-07-12T19:58:05.022Z,102081.95
2018-07-12T20:00:34.128Z,102082.02
2018-07-12T20:03:03.292Z,102091.97
2018-07-12T20:05:32.388Z,102088.40
2018-07-12T20:08:01.515Z,102097.00
2018-07-12T20:10:30.696Z,102089.75
2018-07-12T20:12:59.792Z,102097.06
2018-07-12T20:15:28.848Z,102102.09
2018-07-12T20:17:58.185Z,102110.66
2018-07-12T20:20:27.433Z,102105.25
2018-07-12T20:22:56.680Z,102108.95
2018-07-12T20:25:25.838Z,102116.55
2018-07-12T20:27:55.168Z,102102.16
2018-07-12T20:30:24.250Z,102109.30
2018-07-12T20:32:53.329Z,102112.48
2018-07-12T20:35:22.397Z,102106.22
2018-07-12T20:37:51.564Z,102105.11
2018-07-12T20:40:20.644Z,102107.61
2018-07-12T20:42:49.744Z,102104.52
2018-07-12T20:45:18.840Z,102104.86
2018-07-12T20:47:48.040Z,102102.30
2018-07-12T20:50:17.180Z,102110.79
2018-07-12T20:52:46.351Z,102108.09
2018-07-12T20:55:15.557Z,102113.98
2018-07-12T20:57:44.848Z,102112.24
2018-07-12T21:00:13.936Z,102116.85
2018-07-12T21:02:43.151Z,102113.66
2018-07-12T21:05:12.238Z,102117.72
2018-07-12T21:07:41.343Z,102120.91
2018-07-12T21:10:11.095Z,102120.42
2018-07-12T21:12:40.184Z,102120.49
2018-07-12T21:15:09.272Z,102124.23
2018-07-12T21:17:38.421Z,102122.33
2018-07-12T21:20:07.560Z,102126.48
2018-07-12T21:22:36.629Z,102125.13
2018-07-12T21:25:05.733Z,102124.81
2018-07-12T21:27:34.893Z,102121.70
2018-07-12T21:30:05.178Z,102127.11
2018-07-12T21:32:34.272Z,102122.56
2018-07-12T21:35:03.410Z,102127.52
2018-07-12T21:37:32.525Z,102128.45
2018-07-12T21:40:01.641Z,102126.62
2018-07-12T21:42:30.872Z,102122.66
2018-07-12T21:45:00.002Z,102121.87
2018-07-12T21:47:29.274Z,102120.03
2018-07-12T21:49:58.431Z,102128.14
2018-07-12T21:52:27.642Z,102127.27
2018-07-12T21:54:56.792Z,102129.59
2018-07-12T21:57:25.894Z,102127.76
2018-07-12T21:59:54.988Z,102125.13
2018-07-12T22:02:24.083Z,102135.06
2018-07-12T22:04:53.196Z,102128.80
2018-07-12T22:07:34.872Z,102131.39
2018-07-12T22:10:04.542Z,102125.19
2018-07-12T22:12:33.744Z,102128.37
2018-07-12T22:15:02.899Z,102124.73
2018-07-12T22:17:31.962Z,102122.97
2018-07-12T22:20:01.164Z,102127.34
2018-07-12T22:22:30.262Z,102128.80
2018-07-12T22:24:59.384Z,102134.65
2018-07-12T22:27:28.452Z,102128.80
2018-07-12T22:29:57.560Z,102129.72
2018-07-12T22:32:26.644Z,102132.43
2018-07-12T22:34:55.736Z,102131.95
2018-07-12T22:37:24.860Z,102130.70
2018-07-12T22:39:54.032Z,102134.27
2018-07-12T22:42:23.136Z,102132.05
2018-07-12T22:44:52.340Z,102132.53
2018-07-12T22:47:21.535Z,102135.23
2018-07-12T22:49:50.660Z,102131.63
2018-07-12T22:52:21.440Z,102135.30
2018-07-12T22:54:51.343Z,102131.63
2018-07-12T22:57:20.624Z,102133.47
2018-07-12T22:59:49.919Z,102132.53
2018-07-12T23:02:18.982Z,102129.41
2018-07-12T23:04:48.058Z,102124.00
2018-07-12T23:07:17.173Z,102132.11
2018-07-12T23:09:46.522Z,102129.41
2018-07-12T23:12:15.895Z,102129.89
2018-07-12T23:14:45.460Z,102131.24
2018-07-12T23:17:14.556Z,102127.26
2018-07-12T23:19:49.416Z,102131.80
2018-07-12T23:22:18.512Z,102126.39
2018-07-12T23:24:47.635Z,102136.27
2018-07-12T23:27:17.060Z,102131.80
2018-07-12T23:29:46.560Z,102134.98
2018-07-12T23:32:15.708Z,102125.52
2018-07-12T23:34:44.771Z,102131.41
2018-07-12T23:37:13.888Z,102134.50
2018-07-12T23:39:42.981Z,102129.58
2018-07-12T23:42:12.068Z,102138.55
2018-07-12T23:44:41.175Z,102127.36
2018-07-12T23:47:10.271Z,102129.64
2018-07-12T23:49:39.356Z,102126.88
2018-07-12T23:52:08.455Z,102126.01
2018-07-12T23:54:37.545Z,102127.36
2018-07-12T23:57:06.624Z,102128.70
2018-07-12T23:59:35.752Z,102130.45
